To NAV CANADA Home Page Login to a new session Search on AWWS site Disclaimer Vers la page française équivalente Tips FAQ What's new on the site To the Forecasts and Observations / NOTAM section To "File a Flight Plan" website Publications and other links Update of the User's profile FIC Telephone Numbers My Weather Data Folder Route Weather Data Regional Weather Data Local Weather Data To the Forecasts and Observations / NOTAM section
Request Generated 03/19/2019 at 23:06:05 UTC . Weather information available at that time is displayed.

METAR/TAF

QIKIQTARJUAQ/NU    (show WxCam)

METAR CYVM 192300Z AUTO 20013KT 9SM CLR M31/M37 A2952 RMK SLP998=
METAR CYVM 192200Z 20008KT 15SM IC FEW040 M31/M37 A2953 RMK SC1 SC TR S00 AFT 12UTC/LAST STFD OBS/NEXT 201100UTC SLP002=
METAR CYVM 192100Z 20013KT 15SM IC FEW040 FEW250 M29/M35 A2952 RMK SC1CC2 SC TR SLP999=

TAF CYVM 191838Z 1919/2007 21007KT P6SM SKC
RMK NXT FCST BY 200100Z=
Your time UTC time
Weather data provided by Environment Canada and NAV CANADA